createdAt,value
2023-01-29T00:01:09.315Z,40.87
2023-01-29T00:03:35.417Z,41.06
2023-01-29T00:06:06.251Z,41.03
2023-01-29T00:08:35.966Z,40.88
2023-01-29T00:11:02.851Z,40.89
2023-01-29T00:13:28.776Z,40.92
2023-01-29T00:15:56.689Z,41.11
2023-01-29T00:18:22.784Z,40.98
2023-01-29T00:20:48.470Z,40.90
2023-01-29T00:23:14.650Z,41.04
2023-01-29T00:25:41.146Z,40.85
2023-01-29T00:28:06.841Z,40.98
2023-01-29T00:30:32.695Z,41.02
2023-01-29T00:32:58.351Z,40.82
2023-01-29T00:35:24.023Z,40.94
2023-01-29T00:37:49.657Z,40.98
2023-01-29T00:40:15.888Z,40.82
2023-01-29T00:43:04.072Z,41.08
2023-01-29T00:45:29.832Z,40.96
2023-01-29T00:47:55.478Z,41.21
2023-01-29T00:50:21.240Z,40.89
2023-01-29T00:52:48.857Z,40.88
2023-01-29T00:55:14.545Z,40.99
2023-01-29T00:57:40.217Z,40.95
2023-01-29T01:00:09.906Z,40.86
2023-01-29T01:02:55.527Z,40.94
2023-01-29T01:05:21.203Z,40.77
2023-01-29T01:07:48.656Z,40.97
2023-01-29T01:10:21.122Z,40.89
2023-01-29T01:12:49.720Z,40.79
2023-01-29T01:15:16.521Z,40.88
2023-01-29T01:17:42.168Z,40.97
2023-01-29T01:20:08.387Z,40.83
2023-01-29T01:22:35.026Z,40.90
2023-01-29T01:25:00.738Z,40.96
2023-01-29T01:27:26.404Z,40.85
2023-01-29T01:29:52.054Z,40.97
2023-01-29T01:32:17.739Z,40.71
2023-01-29T01:34:44.542Z,40.94
2023-01-29T01:37:10.809Z,40.90
2023-01-29T01:39:36.468Z,41.03
2023-01-29T01:42:02.381Z,40.83
2023-01-29T01:44:52.567Z,40.80
2023-01-29T01:47:23.089Z,40.78
2023-01-29T01:49:48.840Z,40.79
2023-01-29T01:52:15.731Z,40.65
2023-01-29T01:54:42.019Z,40.69
2023-01-29T01:57:15.371Z,40.90
2023-01-29T01:59:51.712Z,40.98
2023-01-29T02:02:37.379Z,41.00
2023-01-29T02:05:23.139Z,40.87
2023-01-29T02:08:09.519Z,40.85
2023-01-29T02:10:41.281Z,40.87
2023-01-29T02:13:07.329Z,41.07
2023-01-29T02:15:33.164Z,40.99
2023-01-29T02:17:59.017Z,40.82
2023-01-29T02:20:27.167Z,40.70
2023-01-29T02:23:04.524Z,40.77
2023-01-29T02:25:52.130Z,40.89
2023-01-29T02:28:31.607Z,40.98
2023-01-29T02:31:12.034Z,40.90
2023-01-29T02:34:05.971Z,40.99
2023-01-29T02:36:43.065Z,40.99
2023-01-29T02:39:20.641Z,40.81
2023-01-29T02:42:11.504Z,40.99
2023-01-29T02:44:51.039Z,40.94
2023-01-29T02:47:23.262Z,40.86
2023-01-29T02:49:58.265Z,40.85
2023-01-29T02:52:48.887Z,40.92
2023-01-29T02:55:21.720Z,40.85
2023-01-29T02:57:48.093Z,40.97
2023-01-29T03:00:18.249Z,40.78
2023-01-29T03:02:51.644Z,40.63
2023-01-29T03:05:22.221Z,40.65
2023-01-29T03:07:52.964Z,40.79
2023-01-29T03:10:25.485Z,40.86
2023-01-29T03:13:04.879Z,40.79
2023-01-29T03:15:38.446Z,40.98
2023-01-29T03:18:08.530Z,40.64
2023-01-29T03:20:39.484Z,40.80
2023-01-29T03:23:10.811Z,40.98
2023-01-29T03:25:57.494Z,40.82
2023-01-29T03:28:43.192Z,40.88
2023-01-29T03:31:31.625Z,40.77
2023-01-29T03:34:06.587Z,40.71
2023-01-29T03:36:38.802Z,40.79
2023-01-29T03:39:06.869Z,41.17
2023-01-29T03:41:35.910Z,40.70
2023-01-29T03:44:12.321Z,40.79
2023-01-29T03:46:47.946Z,40.77
2023-01-29T03:49:39.013Z,40.80
2023-01-29T03:52:15.223Z,40.81
2023-01-29T03:55:09.810Z,40.67
2023-01-29T03:57:40.352Z,40.79
2023-01-29T04:00:14.283Z,40.78
2023-01-29T04:02:48.215Z,40.73
2023-01-29T04:05:17.614Z,40.81
2023-01-29T04:07:43.850Z,40.70
2023-01-29T04:10:13.955Z,40.73
2023-01-29T04:12:44.930Z,40.73
2023-01-29T04:15:14.628Z,40.80
2023-01-29T04:17:43.048Z,40.72
2023-01-29T04:20:09.030Z,40.67
2023-01-29T04:22:38.428Z,40.66
2023-01-29T04:25:07.857Z,40.73
2023-01-29T04:27:52.157Z,40.72
2023-01-29T04:30:28.156Z,40.87
2023-01-29T04:33:02.606Z,40.65
2023-01-29T04:35:43.066Z,40.78
2023-01-29T04:38:25.054Z,40.74
2023-01-29T04:41:01.506Z,40.82
2023-01-29T04:43:36.225Z,40.73
2023-01-29T04:46:12.050Z,40.71
2023-01-29T04:48:49.080Z,40.76
2023-01-29T04:51:54.516Z,40.65
2023-01-29T04:54:44.202Z,40.56
2023-01-29T04:57:33.607Z,40.85
2023-01-29T05:00:07.287Z,40.76
2023-01-29T05:02:36.667Z,40.76
2023-01-29T05:05:03.056Z,40.85
2023-01-29T05:07:30.201Z,40.59
2023-01-29T05:09:56.094Z,40.66
2023-01-29T05:12:24.795Z,40.58
2023-01-29T05:14:51.301Z,40.73
2023-01-29T05:17:19.300Z,40.68
2023-01-29T05:19:45.636Z,40.68
2023-01-29T05:22:14.037Z,40.75
2023-01-29T05:24:39.719Z,40.57
2023-01-29T05:27:25.482Z,40.66
2023-01-29T05:29:51.137Z,40.62
2023-01-29T05:32:16.772Z,40.59
2023-01-29T05:34:42.418Z,40.48
2023-01-29T05:37:09.252Z,40.61
2023-01-29T05:39:34.889Z,40.72
2023-01-29T05:42:01.235Z,40.68
2023-01-29T05:44:26.881Z,40.66
2023-01-29T05:46:52.613Z,40.62
2023-01-29T05:49:19.797Z,40.73
2023-01-29T05:51:45.514Z,40.68
2023-01-29T05:54:11.882Z,40.72
2023-01-29T05:56:38.739Z,40.74
2023-01-29T05:59:04.405Z,40.49
2023-01-29T06:01:30.039Z,40.79
2023-01-29T06:03:55.730Z,40.82
2023-01-29T06:06:21.384Z,40.66
2023-01-29T06:08:47.285Z,40.70
2023-01-29T06:11:14.066Z,40.72
2023-01-29T06:13:40.026Z,40.78
2023-01-29T06:16:07.658Z,40.80
2023-01-29T06:18:33.455Z,40.64
2023-01-29T06:21:01.809Z,40.54
2023-01-29T06:23:27.751Z,40.58
2023-01-29T06:25:53.392Z,40.62
2023-01-29T06:28:19.034Z,40.70
2023-01-29T06:30:44.707Z,40.72
2023-01-29T06:33:10.407Z,40.58
2023-01-29T06:35:36.054Z,40.60
2023-01-29T06:38:01.710Z,40.71
2023-01-29T06:40:27.357Z,40.65
2023-01-29T06:42:53.033Z,40.54
2023-01-29T06:45:18.695Z,40.65
2023-01-29T06:47:44.360Z,40.90
2023-01-29T06:50:10.631Z,40.80
2023-01-29T06:52:36.285Z,40.60
2023-01-29T06:55:01.963Z,40.62
2023-01-29T06:57:29.228Z,40.72
2023-01-29T06:59:54.905Z,40.60
2023-01-29T07:02:20.644Z,40.76
2023-01-29T07:04:46.297Z,40.83
2023-01-29T07:07:12.905Z,40.72
2023-01-29T07:09:40.366Z,40.65
2023-01-29T07:12:06.305Z,40.37
2023-01-29T07:14:31.960Z,40.68
2023-01-29T07:16:57.587Z,40.68
2023-01-29T07:19:23.225Z,40.84
2023-01-29T07:21:48.920Z,40.63
2023-01-29T07:24:15.427Z,40.50
2023-01-29T07:26:41.394Z,40.59
2023-01-29T07:29:07.096Z,40.73
2023-01-29T07:31:33.036Z,40.50
2023-01-29T07:33:58.739Z,40.61
2023-01-29T07:36:24.383Z,40.51
2023-01-29T07:38:50.643Z,40.76
2023-01-29T07:41:16.493Z,40.66
2023-01-29T07:43:42.131Z,40.69
2023-01-29T07:46:08.122Z,40.49
2023-01-29T07:48:33.838Z,40.66
2023-01-29T07:50:59.515Z,40.60
2023-01-29T07:53:25.974Z,40.75
2023-01-29T07:55:51.630Z,40.66
2023-01-29T07:58:17.276Z,40.69
2023-01-29T08:00:43.434Z,40.71
2023-01-29T08:03:12.942Z,40.60
2023-01-29T08:05:38.594Z,40.67
2023-01-29T08:08:07.265Z,40.75
2023-01-29T08:10:35.121Z,40.85
2023-01-29T08:13:01.523Z,40.51
2023-01-29T08:15:27.836Z,40.79
2023-01-29T08:20:39.382Z,40.64
2023-01-29T08:23:07.327Z,40.84
2023-01-29T08:25:33.661Z,40.55
2023-01-29T08:27:59.712Z,40.59
2023-01-29T08:30:30.648Z,40.48
2023-01-29T08:32:56.486Z,40.60
2023-01-29T08:35:22.273Z,40.58
2023-01-29T08:37:57.478Z,40.77
2023-01-29T08:40:23.204Z,40.69
2023-01-29T08:42:48.861Z,40.50
2023-01-29T08:45:14.556Z,40.60
2023-01-29T08:47:45.304Z,40.59
2023-01-29T08:50:11.077Z,40.61
2023-01-29T08:52:36.715Z,40.75
2023-01-29T08:55:02.706Z,40.58
2023-01-29T08:57:28.337Z,40.57
2023-01-29T08:59:53.989Z,40.64
2023-01-29T09:02:19.736Z,40.55
2023-01-29T09:04:45.577Z,40.62
2023-01-29T09:07:11.216Z,40.54
2023-01-29T09:09:37.540Z,40.66
2023-01-29T09:12:03.350Z,40.90
2023-01-29T09:14:29.007Z,40.99
2023-01-29T09:16:54.717Z,40.82
2023-01-29T09:19:20.377Z,40.40
2023-01-29T09:21:46.005Z,40.55
2023-01-29T09:24:11.670Z,40.65
2023-01-29T09:26:38.852Z,40.65
2023-01-29T09:29:04.567Z,40.56
2023-01-29T09:31:30.289Z,40.75
2023-01-29T09:33:56.033Z,40.76
2023-01-29T09:36:21.687Z,40.59
2023-01-29T09:38:47.321Z,40.59
2023-01-29T09:41:52.813Z,40.67
2023-01-29T09:44:37.212Z,40.64
2023-01-29T09:47:05.210Z,40.61
2023-01-29T09:49:36.689Z,40.64
2023-01-29T09:52:10.164Z,40.66
2023-01-29T09:54:50.215Z,40.61
2023-01-29T09:57:40.301Z,40.65
2023-01-29T10:00:06.793Z,40.63
2023-01-29T10:02:58.713Z,40.54
2023-01-29T10:05:32.286Z,40.65
2023-01-29T10:08:35.827Z,40.64
2023-01-29T10:13:47.642Z,40.63
2023-01-29T10:16:43.574Z,40.53
2023-01-29T10:19:35.799Z,40.45
2023-01-29T10:22:12.229Z,40.57
2023-01-29T10:24:41.394Z,40.60
2023-01-29T10:27:13.222Z,40.48
2023-01-29T10:29:41.044Z,40.56
2023-01-29T10:32:13.768Z,40.56
2023-01-29T10:34:43.524Z,40.73
2023-01-29T10:37:16.040Z,40.44
2023-01-29T10:39:41.688Z,40.63
2023-01-29T10:42:22.145Z,40.60
2023-01-29T10:45:18.597Z,40.57
2023-01-29T10:48:24.332Z,40.78
2023-01-29T10:51:05.865Z,40.58
2023-01-29T10:53:42.133Z,40.63
2023-01-29T10:56:36.444Z,40.61
2023-01-29T10:59:35.237Z,40.65
2023-01-29T11:02:02.519Z,40.54
2023-01-29T11:04:29.705Z,40.59
2023-01-29T11:06:55.445Z,40.66
2023-01-29T11:09:42.265Z,40.69
2023-01-29T11:12:17.064Z,40.73
2023-01-29T11:14:48.099Z,40.59
2023-01-29T11:17:16.040Z,40.68
2023-01-29T11:19:43.800Z,40.64
2023-01-29T11:22:16.282Z,40.58
2023-01-29T11:24:42.329Z,40.57
2023-01-29T11:27:22.544Z,40.65
2023-01-29T11:29:49.184Z,40.65
2023-01-29T11:37:38.300Z,40.69
2023-01-29T11:42:53.861Z,40.76
2023-01-29T11:45:24.974Z,40.66
2023-01-29T11:47:53.941Z,40.77
2023-01-29T11:50:22.481Z,40.78
2023-01-29T11:52:48.044Z,40.58
2023-01-29T11:55:20.120Z,40.68
2023-01-29T11:57:48.377Z,40.74
2023-01-29T12:00:21.877Z,40.70
2023-01-29T12:02:53.680Z,40.60
2023-01-29T12:05:22.461Z,40.71
2023-01-29T12:07:49.978Z,40.71
2023-01-29T12:10:36.696Z,40.83
2023-01-29T12:13:19.220Z,40.53
2023-01-29T12:15:45.808Z,41.12
2023-01-29T12:18:31.389Z,40.70
2023-01-29T12:21:00.934Z,40.68
2023-01-29T12:23:34.177Z,40.52
2023-01-29T12:26:04.313Z,40.63
2023-01-29T12:28:37.040Z,40.75
2023-01-29T12:31:26.876Z,40.61
2023-01-29T12:34:05.514Z,40.71
2023-01-29T12:36:40.201Z,40.77
2023-01-29T12:39:16.016Z,40.67
2023-01-29T12:41:49.842Z,40.60
2023-01-29T12:44:33.776Z,40.89
2023-01-29T12:47:00.356Z,40.59
2023-01-29T12:49:29.162Z,40.65
2023-01-29T12:52:15.919Z,40.45
2023-01-29T12:54:54.066Z,40.59
2023-01-29T12:57:23.584Z,40.62
2023-01-29T12:59:54.453Z,40.76
2023-01-29T13:02:31.349Z,40.68
2023-01-29T13:05:18.244Z,40.75
2023-01-29T13:07:49.226Z,40.51
2023-01-29T13:10:18.436Z,40.79
2023-01-29T13:12:53.628Z,40.46
2023-01-29T13:15:23.948Z,40.50
2023-01-29T13:17:55.232Z,40.44
2023-01-29T13:20:25.044Z,40.72
2023-01-29T13:22:51.930Z,40.51
2023-01-29T13:25:19.112Z,40.58
2023-01-29T13:27:47.022Z,40.35
2023-01-29T13:30:30.302Z,40.58
2023-01-29T13:33:07.641Z,40.41
2023-01-29T13:35:36.995Z,40.51
2023-01-29T13:38:03.593Z,40.22
2023-01-29T13:40:30.585Z,40.68
2023-01-29T13:42:59.002Z,40.75
2023-01-29T13:45:34.306Z,40.69
2023-01-29T13:48:27.470Z,40.69
2023-01-29T13:50:55.011Z,40.60
2023-01-29T13:53:27.308Z,40.78
2023-01-29T13:55:53.006Z,40.51
2023-01-29T14:01:08.725Z,40.60
2023-01-29T14:04:04.218Z,40.59
2023-01-29T14:06:49.179Z,40.51
2023-01-29T14:09:38.424Z,40.41
2023-01-29T14:15:14.503Z,40.47
2023-01-29T14:17:53.566Z,40.59
2023-01-29T14:20:25.711Z,40.65
2023-01-29T14:22:55.685Z,40.46
2023-01-29T14:25:26.686Z,40.52
2023-01-29T14:27:52.555Z,40.56
2023-01-29T14:30:18.487Z,40.45
2023-01-29T14:32:48.795Z,40.59
2023-01-29T14:35:20.435Z,40.36
2023-01-29T14:37:49.234Z,40.44
2023-01-29T14:40:21.047Z,40.77
2023-01-29T14:43:04.711Z,40.49
2023-01-29T14:45:34.572Z,40.58
2023-01-29T14:48:39.085Z,40.43
2023-01-29T14:51:09.525Z,40.58
2023-01-29T14:54:04.200Z,40.41
2023-01-29T14:56:35.197Z,40.51
2023-01-29T15:01:54.467Z,40.31
2023-01-29T15:04:26.142Z,40.51
2023-01-29T15:07:00.433Z,40.61
2023-01-29T15:09:41.919Z,40.43
2023-01-29T15:12:30.459Z,40.34
2023-01-29T15:15:02.869Z,40.37
2023-01-29T15:17:35.886Z,40.49
2023-01-29T15:20:01.597Z,40.25
2023-01-29T15:22:29.030Z,40.41
2023-01-29T15:25:12.080Z,40.57
2023-01-29T15:27:41.189Z,40.44
2023-01-29T15:30:07.449Z,40.37
2023-01-29T15:32:36.968Z,40.43
2023-01-29T15:35:09.961Z,40.39
2023-01-29T15:37:36.336Z,40.47
2023-01-29T15:40:04.367Z,40.61
2023-01-29T15:42:43.780Z,40.40
2023-01-29T15:45:30.388Z,40.28
2023-01-29T15:48:04.636Z,40.35
2023-01-29T15:50:31.012Z,40.27
2023-01-29T15:52:58.040Z,40.26
2023-01-29T15:55:23.821Z,40.46
2023-01-29T15:57:49.566Z,40.35
2023-01-29T16:00:22.373Z,40.32
2023-01-29T16:02:48.165Z,40.55
2023-01-29T16:05:16.993Z,40.26
2023-01-29T16:07:43.986Z,40.36
2023-01-29T16:10:19.835Z,40.33
2023-01-29T16:12:50.470Z,40.40
2023-01-29T16:15:29.667Z,40.37
2023-01-29T16:17:55.662Z,40.38
2023-01-29T16:20:32.028Z,40.32
2023-01-29T16:22:57.992Z,40.33
2023-01-29T16:25:23.745Z,40.25
2023-01-29T16:27:49.437Z,40.16
2023-01-29T16:30:16.851Z,40.32
2023-01-29T16:32:42.580Z,40.31
2023-01-29T16:35:14.630Z,40.47
2023-01-29T16:37:40.504Z,40.37
2023-01-29T16:40:20.796Z,40.27
2023-01-29T16:42:46.435Z,40.32
2023-01-29T16:45:32.005Z,40.24
2023-01-29T16:48:01.095Z,40.20
2023-01-29T16:50:40.716Z,40.30
2023-01-29T16:53:18.188Z,40.20
2023-01-29T16:55:46.386Z,40.43
2023-01-29T16:58:15.563Z,40.30
2023-01-29T17:00:44.841Z,40.15
2023-01-29T17:03:11.428Z,40.33
2023-01-29T17:05:37.602Z,40.27
2023-01-29T17:08:03.676Z,40.41
2023-01-29T17:10:29.953Z,40.26
2023-01-29T17:12:58.397Z,40.25
2023-01-29T17:15:43.922Z,40.28
2023-01-29T17:18:17.586Z,40.37
2023-01-29T17:20:43.261Z,39.95
2023-01-29T17:23:08.894Z,40.27
2023-01-29T17:25:34.630Z,40.46
2023-01-29T17:28:01.035Z,40.37
2023-01-29T17:30:30.213Z,40.30
2023-01-29T17:32:55.874Z,40.31
2023-01-29T17:35:21.643Z,40.18
2023-01-29T17:37:47.344Z,40.40
2023-01-29T17:40:20.904Z,40.19
2023-01-29T17:42:46.544Z,40.27
2023-01-29T17:45:12.266Z,40.19
2023-01-29T17:47:37.913Z,40.19
2023-01-29T17:50:15.259Z,40.33
2023-01-29T17:52:40.901Z,40.27
2023-01-29T17:55:07.765Z,40.25
2023-01-29T17:57:33.507Z,40.36
2023-01-29T17:59:59.152Z,40.30
2023-01-29T18:02:28.893Z,40.38
2023-01-29T18:04:54.972Z,40.33
2023-01-29T18:07:20.608Z,40.34
2023-01-29T18:09:46.240Z,40.28
2023-01-29T18:12:11.884Z,40.28
2023-01-29T18:14:37.521Z,40.19
2023-01-29T18:17:03.170Z,40.51
2023-01-29T18:19:30.335Z,40.04
2023-01-29T18:21:56.001Z,40.30
2023-01-29T18:24:21.905Z,40.21
2023-01-29T18:26:48.406Z,40.22
2023-01-29T18:29:14.232Z,40.18
2023-01-29T18:31:39.911Z,40.26
2023-01-29T18:34:05.616Z,40.23
2023-01-29T18:36:31.352Z,40.16
2023-01-29T18:38:57.244Z,40.28
2023-01-29T18:41:23.011Z,40.35
2023-01-29T18:43:50.810Z,40.27
2023-01-29T18:46:16.568Z,40.29
2023-01-29T18:48:42.941Z,40.21
2023-01-29T18:51:08.784Z,40.40
2023-01-29T18:53:34.418Z,40.27
2023-01-29T18:56:03.398Z,40.29
2023-01-29T18:58:36.421Z,40.28
2023-01-29T19:01:08.150Z,40.29
2023-01-29T19:03:34.965Z,40.01
2023-01-29T19:06:01.787Z,40.19
2023-01-29T19:08:28.267Z,40.13
2023-01-29T19:10:53.909Z,40.20
2023-01-29T19:13:19.559Z,40.17
2023-01-29T19:15:47.245Z,40.31
2023-01-29T19:18:14.556Z,40.22
2023-01-29T19:20:41.376Z,40.25
2023-01-29T19:23:07.886Z,40.18
2023-01-29T19:25:37.415Z,40.14
2023-01-29T19:28:03.136Z,40.05
2023-01-29T19:30:28.856Z,40.04
2023-01-29T19:32:54.556Z,40.22
2023-01-29T19:35:20.388Z,40.05
2023-01-29T19:37:46.098Z,40.14
2023-01-29T19:40:11.794Z,40.14
2023-01-29T19:42:37.575Z,40.12
2023-01-29T19:45:04.310Z,40.16
2023-01-29T19:47:30.280Z,40.10
2023-01-29T19:49:55.938Z,40.12
2023-01-29T19:52:50.137Z,40.15
2023-01-29T19:55:17.004Z,40.10
2023-01-29T19:57:42.862Z,39.97
2023-01-29T20:00:11.259Z,40.06
2023-01-29T20:02:37.106Z,40.24
2023-01-29T20:05:04.657Z,40.12
2023-01-29T20:07:30.305Z,40.17
2023-01-29T20:09:55.943Z,40.27
2023-01-29T20:12:21.648Z,40.11
2023-01-29T20:14:48.210Z,40.04
2023-01-29T20:17:15.534Z,40.06
2023-01-29T20:19:42.560Z,40.25
2023-01-29T20:22:08.210Z,40.17
2023-01-29T20:24:38.210Z,40.19
2023-01-29T20:27:04.974Z,40.33
2023-01-29T20:29:31.135Z,40.19
2023-01-29T20:31:56.777Z,40.13
2023-01-29T20:34:23.211Z,40.06
2023-01-29T20:36:48.962Z,40.14
2023-01-29T20:39:14.759Z,40.10
2023-01-29T20:41:40.903Z,40.13
2023-01-29T20:44:07.490Z,40.14
2023-01-29T20:46:34.462Z,40.28
2023-01-29T20:49:00.985Z,40.09
2023-01-29T20:51:26.646Z,40.33
2023-01-29T20:53:52.379Z,40.13
2023-01-29T20:56:18.197Z,40.18
2023-01-29T20:58:46.286Z,40.09
2023-01-29T21:01:14.863Z,40.16
2023-01-29T21:03:40.861Z,40.43
2023-01-29T21:06:07.798Z,40.04
2023-01-29T21:08:34.483Z,40.03
2023-01-29T21:11:00.566Z,40.12
2023-01-29T21:13:26.288Z,40.23
2023-01-29T21:15:51.920Z,40.12
2023-01-29T21:18:17.729Z,40.02
2023-01-29T21:20:43.705Z,40.07
2023-01-29T21:23:09.820Z,40.05
2023-01-29T21:25:37.485Z,40.22
2023-01-29T21:28:04.094Z,39.92
2023-01-29T21:30:29.779Z,40.30
2023-01-29T21:32:55.472Z,40.09
2023-01-29T21:35:21.151Z,40.10
2023-01-29T21:37:46.797Z,40.10
2023-01-29T21:40:12.564Z,40.10
2023-01-29T21:42:58.116Z,39.94
2023-01-29T21:45:23.757Z,40.05
2023-01-29T21:47:49.389Z,40.01
2023-01-29T21:50:15.646Z,40.02
2023-01-29T21:52:41.663Z,40.11
2023-01-29T21:55:07.623Z,40.19
2023-01-29T21:57:33.424Z,40.12
2023-01-29T21:59:59.119Z,40.09
2023-01-29T22:02:30.031Z,40.09
2023-01-29T22:05:16.612Z,40.15
2023-01-29T22:07:44.189Z,40.20
2023-01-29T22:10:11.109Z,40.11
2023-01-29T22:12:36.785Z,40.11
2023-01-29T22:15:02.535Z,39.89
2023-01-29T22:17:28.178Z,40.09
2023-01-29T22:19:53.824Z,40.06
2023-01-29T22:22:19.517Z,40.05
2023-01-29T22:24:45.792Z,40.02
2023-01-29T22:27:13.000Z,40.11
2023-01-29T22:29:38.653Z,40.05
2023-01-29T22:32:05.446Z,40.11
2023-01-29T22:34:31.586Z,40.24
2023-01-29T22:36:57.236Z,40.13
2023-01-29T22:39:22.885Z,40.10
2023-01-29T22:41:48.536Z,40.18
2023-01-29T22:44:14.169Z,40.21
2023-01-29T22:46:39.921Z,40.03
2023-01-29T22:49:05.633Z,40.17
2023-01-29T22:51:31.293Z,39.96
2023-01-29T22:53:57.117Z,39.91
2023-01-29T22:56:25.034Z,40.06
2023-01-29T22:58:51.874Z,40.13
2023-01-29T23:01:19.322Z,40.03
2023-01-29T23:03:46.178Z,40.09
2023-01-29T23:06:12.654Z,40.01
2023-01-29T23:08:38.338Z,40.02
2023-01-29T23:11:20.580Z,40.12
2023-01-29T23:13:49.904Z,40.06
2023-01-29T23:16:16.376Z,40.12
2023-01-29T23:18:42.799Z,39.85
2023-01-29T23:21:08.768Z,40.25
2023-01-29T23:23:36.077Z,40.17
2023-01-29T23:26:23.077Z,40.12
2023-01-29T23:28:48.893Z,39.94
2023-01-29T23:31:15.213Z,40.04
2023-01-29T23:33:40.932Z,40.08
2023-01-29T23:36:07.229Z,40.18
2023-01-29T23:38:32.888Z,40.04
2023-01-29T23:40:58.854Z,40.05
2023-01-29T23:43:25.625Z,40.09
2023-01-29T23:45:51.283Z,40.15
2023-01-29T23:48:16.999Z,40.01
2023-01-29T23:50:42.949Z,40.07
2023-01-29T23:53:08.657Z,40.03
2023-01-29T23:55:34.314Z,39.89
2023-01-29T23:58:00.010Z,40.05
